Time;durP1;ratioP1;P1;durP2;ratioP2;P2;SDS_P1;SDS_P2;PMS_P1;PMS_P2;Temp;Humidity;BMP_temperature;BMP_pressure;BME280_temperature;BME280_humidity;BME280_pressure;Samples;Min_cycle;Max_cycle;Signal;HPM_P1;HPM_P2
2022/12/27 00:01:12;;;;;;;5.13;2.40;;;;;;;3.52;86.72;101075.56;5041517;28;20289;-80
2022/12/27 00:03:40;;;;;;;7.80;3.03;;;;;;;3.41;86.38;101079.66;5042858;28;20313;-79
2022/12/27 00:06:08;;;;;;;3.60;1.93;;;;;;;3.56;86.41;101079.09;5043973;28;20282;-80
2022/12/27 00:08:34;;;;;;;3.73;2.10;;;;;;;3.34;86.51;101070.91;5038730;28;20206;-80
2022/12/27 00:11:04;;;;;;;12.40;2.50;;;;;;;3.28;86.98;101064.78;5033598;28;20909;-82
2022/12/27 00:13:31;;;;;;;2.63;2.13;;;;;;;3.52;86.82;101060.09;5034092;28;20260;-79
2022/12/27 00:16:03;;;;;;;2.90;1.80;;;;;;;3.43;86.43;101075.41;5033883;28;20296;-80
2022/12/27 00:18:29;;;;;;;3.40;1.50;;;;;;;3.34;85.84;101077.78;5033662;28;20246;-80
2022/12/27 00:20:58;;;;;;;4.07;1.97;;;;;;;3.58;85.72;101093.75;5032800;28;20567;-80
2022/12/27 00:23:25;;;;;;;3.50;1.70;;;;;;;3.67;85.53;101107.72;5033496;28;20203;-79
2022/12/27 00:25:51;;;;;;;1.80;1.60;;;;;;;3.50;85.10;101128.00;5033903;28;20257;-80
2022/12/27 00:28:17;;;;;;;2.40;1.20;;;;;;;3.68;85.29;101128.38;5033790;28;20203;-80
2022/12/27 00:30:44;;;;;;;4.10;1.50;;;;;;;3.61;84.81;101148.88;5033778;28;20592;-81
2022/12/27 00:33:10;;;;;;;6.70;2.20;;;;;;;3.43;85.02;101150.25;5033404;28;20760;-81
2022/12/27 00:35:38;;;;;;;8.10;1.60;;;;;;;3.43;85.34;101157.09;5035251;28;20252;-79
2022/12/27 00:38:06;;;;;;;3.90;2.20;;;;;;;3.41;85.21;101157.09;5034858;28;20210;-81
2022/12/27 00:40:32;;;;;;;3.80;2.20;;;;;;;3.46;85.51;101146.84;5035023;28;20202;-80
2022/12/27 00:42:59;;;;;;;3.93;2.20;;;;;;;3.62;86.02;101142.88;5034312;28;20205;-81
2022/12/27 00:45:25;;;;;;;2.80;2.10;;;;;;;3.76;85.38;101149.19;5034795;28;20217;-81
2022/12/27 00:47:51;;;;;;;2.87;1.77;;;;;;;3.81;85.32;101149.31;5035491;28;20587;-80
2022/12/27 00:50:18;;;;;;;5.10;1.70;;;;;;;3.88;85.20;101151.16;5034715;28;20772;-81
2022/12/27 00:52:44;;;;;;;3.57;2.53;;;;;;;3.96;85.12;101141.84;5033673;28;20232;-81
2022/12/27 00:55:12;;;;;;;3.77;1.90;;;;;;;3.95;85.06;101150.44;5033238;28;20796;-81
2022/12/27 00:57:38;;;;;;;4.47;2.73;;;;;;;3.78;84.05;101169.03;5033429;28;20202;-81
2022/12/27 01:00:06;;;;;;;6.40;3.67;;;;;;;3.98;83.98;101184.06;5033088;28;20265;-81
2022/12/27 01:02:33;;;;;;;4.73;2.40;;;;;;;3.96;83.26;101212.47;5033058;28;20348;-81
2022/12/27 01:04:59;;;;;;;4.87;2.93;;;;;;;4.03;83.25;101225.50;5033824;28;20206;-81
2022/12/27 01:07:25;;;;;;;5.47;2.80;;;;;;;4.10;83.62;101222.19;5033531;28;20238;-82
2022/12/27 01:09:52;;;;;;;4.67;3.07;;;;;;;4.11;82.75;101249.78;5040163;28;20249;-81
2022/12/27 01:12:19;;;;;;;4.97;2.77;;;;;;;4.02;82.26;101276.28;5043418;28;20225;-81
2022/12/27 01:14:46;;;;;;;4.47;2.37;;;;;;;4.11;82.85;101285.97;5043405;28;20198;-82
2022/12/27 01:17:12;;;;;;;5.53;2.50;;;;;;;4.10;82.78;101285.09;5045331;28;20205;-81
2022/12/27 01:19:39;;;;;;;4.43;2.60;;;;;;;4.23;82.88;101295.69;5060666;23;20239;-84
2022/12/27 01:22:06;;;;;;;5.03;3.03;;;;;;;4.30;82.93;101285.50;4994382;28;20247;-84
2022/12/27 01:24:33;;;;;;;4.10;2.40;;;;;;;4.18;82.17;101295.56;4995014;28;20238;-83
2022/12/27 01:26:59;;;;;;;9.20;3.10;;;;;;;4.30;82.06;101307.88;4995800;28;20228;-84
2022/12/27 01:29:27;;;;;;;7.57;2.67;;;;;;;4.16;81.22;101315.34;4995685;28;20277;-83
2022/12/27 01:31:53;;;;;;;3.17;2.43;;;;;;;4.06;80.86;101324.59;4994905;28;20252;-84
2022/12/27 01:34:20;;;;;;;3.77;2.10;;;;;;;4.05;81.97;101325.44;4995160;28;20231;-83
2022/12/27 01:36:46;;;;;;;5.60;2.87;;;;;;;4.06;81.62;101329.75;4995556;28;20212;-84
2022/12/27 01:39:13;;;;;;;5.00;2.40;;;;;;;4.05;81.82;101316.84;4995049;28;20239;-83
2022/12/27 01:44:48;;;;;;;4.40;2.30;;;;;;;3.73;82.08;101320.44;4995276;28;20230;-84
2022/12/27 01:47:21;;;;;;;6.60;2.30;;;;;;;3.86;82.98;101282.84;4995239;28;20218;-85
2022/12/27 01:49:57;;;;;;;6.57;2.13;;;;;;;3.93;83.36;101270.94;4994889;28;20281;-82
2022/12/27 01:52:28;;;;;;;4.43;1.90;;;;;;;3.87;82.51;101281.16;4993985;28;20228;-83
2022/12/27 01:54:59;;;;;;;5.83;1.90;;;;;;;3.82;82.58;101273.28;4994131;28;20265;-84
2022/12/27 01:57:25;;;;;;;5.87;1.90;;;;;;;3.92;82.46;101274.34;4994365;28;20675;-83
2022/12/27 01:59:53;;;;;;;6.20;1.73;;;;;;;3.92;82.45;101284.69;4994121;28;20231;-83
2022/12/27 02:02:21;;;;;;;3.77;1.90;;;;;;;4.02;82.07;101285.75;4994323;28;20262;-83
2022/12/27 02:04:48;;;;;;;1.80;1.27;;;;;;;4.03;82.40;101287.50;4993902;28;20221;-84
2022/12/27 02:07:15;;;;;;;2.33;1.57;;;;;;;3.94;82.27;101291.66;4994033;28;20205;-83
2022/12/27 02:09:46;;;;;;;5.57;1.80;;;;;;;3.97;82.57;101291.69;5000284;28;20275;-84
2022/12/27 02:12:13;;;;;;;4.50;1.80;;;;;;;3.89;82.68;101287.22;5013295;28;20223;-83
2022/12/27 02:14:42;;;;;;;2.53;1.47;;;;;;;3.96;82.79;101292.56;5013667;28;20211;-83
2022/12/27 02:17:12;;;;;;;5.83;1.90;;;;;;;3.58;82.83;101289.09;5013450;28;20203;-84
2022/12/27 02:19:46;;;;;;;3.83;1.40;;;;;;;3.57;83.94;101275.31;5013544;28;20235;-82
2022/12/27 02:26:04;;;;;;;3.90;1.50;;;;;;;3.37;84.83;101236.13;5013904;28;20279;-83
2022/12/27 02:28:54;;;;;;;8.03;1.50;;;;;;;3.51;84.78;101209.78;5013606;28;20950;-84
2022/12/27 02:31:28;;;;;;;3.43;1.93;;;;;;;3.22;85.60;101209.09;5012867;28;20223;-84
2022/12/27 02:33:57;;;;;;;4.77;1.40;;;;;;;3.14;86.38;101190.88;5013888;28;20696;-83
2022/12/27 02:36:27;;;;;;;5.67;1.63;;;;;;;3.30;86.73;101155.97;5013644;28;20211;-83
2022/12/27 02:38:58;;;;;;;4.30;1.30;;;;;;;3.17;87.29;101139.34;5014048;28;20285;-83
2022/12/27 02:55:33;;;;;;;5.33;1.03;;;;;;;3.48;86.45;101143.47;5024403;28;20206;-83
2022/12/27 02:58:21;;;;;;;3.93;1.40;;;;;;;3.58;86.53;101139.38;5027814;28;20226;-81
2022/12/27 03:04:07;;;;;;;3.23;1.80;;;;;;;3.61;86.41;101143.72;5016215;28;20211;-81
2022/12/27 03:06:49;;;;;;;4.50;1.90;;;;;;;3.54;86.55;101141.00;5015973;28;20207;-83
2022/12/27 03:18:13;;;;;;;5.80;2.07;;;;;;;3.42;87.03;101132.16;5015987;28;20268;-82
2022/12/27 03:26:16;;;;;;;3.53;1.63;;;;;;;3.40;87.66;101124.38;5016096;28;20210;-84
2022/12/27 03:34:34;;;;;;;4.57;1.83;;;;;;;3.61;87.07;101113.63;5015900;28;20207;-84
2022/12/27 03:39:55;;;;;;;4.03;2.07;;;;;;;3.76;87.14;101115.63;5015846;28;20233;-83
2022/12/27 03:45:10;;;;;;;5.67;2.43;;;;;;;3.88;86.72;101131.34;5015762;28;20264;-81
2022/12/27 03:47:42;;;;;;;6.57;2.37;;;;;;;3.88;86.72;101146.00;5015540;28;20200;-83
2022/12/27 03:50:15;;;;;;;3.50;2.60;;;;;;;3.89;86.34;101146.03;5015695;28;20253;-81
2022/12/27 03:52:48;;;;;;;7.30;2.93;;;;;;;3.97;86.48;101141.03;5015160;28;20306;-81
2022/12/27 03:55:16;;;;;;;3.90;2.27;;;;;;;4.02;86.40;101147.13;5015816;28;20212;-82
2022/12/27 03:57:42;;;;;;;4.23;2.30;;;;;;;4.04;86.01;101160.06;5015245;28;20207;-83
2022/12/27 04:00:10;;;;;;;8.77;3.23;;;;;;;4.06;86.61;101169.59;5015138;28;20262;-84
2022/12/27 04:02:37;;;;;;;6.53;2.67;;;;;;;4.13;85.91;101165.44;5015394;28;20246;-84
2022/12/27 04:05:03;;;;;;;4.43;2.57;;;;;;;3.95;86.58;101186.63;5015252;28;20199;-80
2022/12/27 04:07:29;;;;;;;4.07;2.47;;;;;;;3.99;86.67;101167.75;5014250;28;20230;-84
2022/12/27 04:34:41;;;;;;;4.50;3.13;;;;;;;3.93;88.25;101098.75;5014949;28;20704;-81
2022/12/27 04:37:08;;;;;;;5.77;3.63;;;;;;;3.97;87.86;101116.06;5015737;28;20633;-81
2022/12/27 04:39:34;;;;;;;6.37;3.30;;;;;;;4.01;87.93;101117.00;5014875;28;20230;-82
2022/12/27 04:55:53;;;;;;;6.37;3.60;;;;;;;4.17;87.27;101137.09;5015304;28;20248;-85
2022/12/27 04:58:21;;;;;;;3.80;3.50;;;;;;;4.25;87.48;101131.19;5015105;28;20223;-81
2022/12/27 05:03:32;;;;;;;7.33;4.70;;;;;;;4.14;87.72;101155.13;5015145;28;20218;-83
2022/12/27 05:06:00;;;;;;;9.80;5.40;;;;;;;4.22;87.61;101149.22;5015645;28;20223;-82
2022/12/27 05:14:01;;;;;;;6.17;5.40;;;;;;;4.34;87.06;101158.09;5015402;28;20213;-81
2022/12/27 05:16:29;;;;;;;6.60;5.40;;;;;;;4.33;87.17;101165.81;5015510;28;20566;-83
2022/12/27 05:18:55;;;;;;;11.13;5.20;;;;;;;4.33;87.54;101169.25;5016365;28;20300;-82
2022/12/27 05:21:22;;;;;;;5.10;4.70;;;;;;;4.32;87.63;101166.63;5015168;28;20255;-83
2022/12/27 05:26:33;;;;;;;10.23;5.50;;;;;;;4.41;86.39;101179.72;5016359;28;20635;-82
2022/12/27 05:29:01;;;;;;;6.00;4.70;;;;;;;4.42;86.56;101181.50;5015824;28;20236;-81
2022/12/27 05:31:29;;;;;;;8.00;4.80;;;;;;;4.33;87.49;101182.19;5015831;28;20253;-82
2022/12/27 05:33:56;;;;;;;9.50;4.70;;;;;;;4.36;86.58;101190.00;5015114;28;20210;-83
2022/12/27 05:36:22;;;;;;;6.20;5.57;;;;;;;4.47;87.29;101194.50;5015195;28;20212;-82
2022/12/27 05:38:49;;;;;;;6.30;5.13;;;;;;;4.42;86.75;101191.81;5015753;28;20231;-82
2022/12/27 05:41:16;;;;;;;6.13;5.53;;;;;;;4.49;87.12;101192.81;5015146;28;20204;-84
2022/12/27 05:43:42;;;;;;;7.03;5.40;;;;;;;4.41;86.94;101192.66;5015199;28;20678;-83
2022/12/27 05:46:12;;;;;;;6.87;6.07;;;;;;;4.35;87.61;101179.63;5015641;28;20258;-83
2022/12/27 05:48:39;;;;;;;7.10;5.60;;;;;;;4.44;88.20;101184.97;5014878;28;20301;-83
2022/12/27 05:51:07;;;;;;;11.80;5.80;;;;;;;4.52;87.50;101182.50;5014438;28;20260;-85
2022/12/27 05:53:33;;;;;;;6.17;5.67;;;;;;;4.45;88.19;101185.84;5015683;28;20208;-83
2022/12/27 05:56:00;;;;;;;10.07;7.00;;;;;;;4.36;88.28;101173.59;5015276;28;20205;-82
2022/12/27 05:58:27;;;;;;;9.13;6.57;;;;;;;4.35;88.52;101177.03;5016328;28;20231;-83
2022/12/27 06:00:54;;;;;;;9.53;6.67;;;;;;;4.38;88.41;101171.94;5014835;28;20209;-84
2022/12/27 06:03:22;;;;;;;6.70;6.10;;;;;;;4.38;88.07;101177.97;5014883;28;20208;-82
2022/12/27 06:05:48;;;;;;;6.93;6.23;;;;;;;4.40;88.33;101195.22;5015774;28;20213;-84
2022/12/27 06:08:14;;;;;;;7.90;6.43;;;;;;;4.37;88.14;101177.94;5015289;28;20226;-82
2022/12/27 06:10:41;;;;;;;6.80;6.00;;;;;;;4.44;87.85;101186.66;5015183;28;20208;-84
2022/12/27 06:13:07;;;;;;;8.10;7.17;;;;;;;4.41;88.30;101199.56;5015386;28;20367;-85
2022/12/27 06:15:34;;;;;;;8.23;6.93;;;;;;;4.36;88.44;101207.19;5015740;28;20218;-83
2022/12/27 06:18:02;;;;;;;7.93;7.10;;;;;;;4.46;88.62;101185.88;5014657;28;20236;-83
2022/12/27 06:20:30;;;;;;;8.40;6.93;;;;;;;4.40;88.20;101193.53;5015628;28;20215;-83
2022/12/27 06:22:58;;;;;;;9.33;7.17;;;;;;;4.41;88.47;101190.06;5015160;28;20215;-84
2022/12/27 06:25:25;;;;;;;6.73;6.23;;;;;;;4.33;87.93;101191.66;5015573;28;20207;-84
2022/12/27 06:27:51;;;;;;;7.47;6.73;;;;;;;4.41;88.38;101207.31;5015449;28;20268;-83
2022/12/27 06:30:17;;;;;;;9.63;6.83;;;;;;;4.42;88.05;101209.03;5015370;28;20211;-82
2022/12/27 06:32:44;;;;;;;7.77;7.17;;;;;;;4.40;87.86;101208.13;5019112;28;20243;-84
2022/12/27 06:35:10;;;;;;;8.10;7.33;;;;;;;4.28;88.37;101219.09;5019513;28;20211;-84
2022/12/27 06:37:38;;;;;;;9.03;8.13;;;;;;;4.28;89.17;101198.44;5019293;28;20202;-82
2022/12/27 06:40:05;;;;;;;8.80;7.87;;;;;;;4.40;89.33;101202.97;5018297;28;20273;-83
2022/12/27 06:42:32;;;;;;;9.40;8.57;;;;;;;4.44;89.32;101182.38;5019422;28;20203;-84
2022/12/27 06:44:58;;;;;;;8.90;7.93;;;;;;;4.44;88.89;101182.38;5018246;28;20216;-84
2022/12/27 06:47:24;;;;;;;9.27;8.20;;;;;;;4.33;88.72;101183.91;5019297;28;20239;-81
2022/12/27 06:49:51;;;;;;;8.23;7.40;;;;;;;4.31;88.58;101181.28;5019397;28;20231;-83
2022/12/27 06:52:17;;;;;;;8.40;7.57;;;;;;;4.35;88.39;101195.13;5020559;28;20226;-84
2022/12/27 06:54:45;;;;;;;12.67;8.37;;;;;;;4.35;88.94;101205.47;5018917;28;20233;-83
2022/12/27 06:57:11;;;;;;;8.00;7.03;;;;;;;4.33;88.82;101201.97;5018635;28;20692;-83
2022/12/27 06:59:37;;;;;;;7.77;7.07;;;;;;;4.38;88.28;101214.16;5018849;28;20274;-83
2022/12/27 07:02:04;;;;;;;8.73;7.67;;;;;;;4.41;88.25;101212.47;5018583;28;20234;-84
2022/12/27 07:04:30;;;;;;;9.23;8.30;;;;;;;4.36;88.28;101230.47;5019094;28;20202;-83
2022/12/27 07:06:56;;;;;;;9.37;8.50;;;;;;;4.41;88.63;101222.81;5018258;28;20628;-84
2022/12/27 07:09:23;;;;;;;9.03;8.23;;;;;;;4.35;88.81;101218.41;5017023;28;20232;-80
2022/12/27 07:11:52;;;;;;;11.43;8.80;;;;;;;4.33;89.01;101227.84;5016419;28;20238;-83
2022/12/27 07:14:18;;;;;;;9.30;8.40;;;;;;;4.31;89.06;101214.88;5017637;28;20306;-82
2022/12/27 07:16:45;;;;;;;9.07;8.37;;;;;;;4.33;89.50;101202.84;5017186;28;20577;-82
2022/12/27 07:19:11;;;;;;;9.87;8.93;;;;;;;4.38;89.45;101214.16;5018760;28;20265;-82
2022/12/27 07:21:37;;;;;;;9.47;8.67;;;;;;;4.34;89.27;101211.47;5017423;28;20207;-81
2022/12/27 07:24:05;;;;;;;11.10;9.27;;;;;;;4.32;89.55;101206.28;5015917;28;20207;-81
2022/12/27 07:26:31;;;;;;;9.77;8.63;;;;;;;4.32;89.51;101202.81;5016922;28;20211;-82
2022/12/27 07:29:01;;;;;;;12.00;9.47;;;;;;;4.37;89.70;101208.94;5017807;28;20235;-80
2022/12/27 07:31:29;;;;;;;9.57;8.50;;;;;;;4.32;89.88;101214.03;5016913;28;20203;-82
2022/12/27 07:33:56;;;;;;;8.90;8.00;;;;;;;4.29;90.35;101221.72;5015605;28;20227;-81
2022/12/27 07:36:25;;;;;;;11.37;8.40;;;;;;;4.24;90.21;101212.13;5016109;28;20606;-80
2022/12/27 07:38:51;;;;;;;9.17;8.37;;;;;;;4.28;90.44;101199.31;5016338;28;20237;-81
2022/12/27 07:41:18;;;;;;;7.93;7.33;;;;;;;4.35;90.14;101201.16;5015485;28;20207;-81
2022/12/27 07:43:44;;;;;;;9.30;8.53;;;;;;;4.30;90.20;101213.16;5015952;28;20212;-82
2022/12/27 07:46:14;;;;;;;8.80;8.00;;;;;;;4.36;89.79;101225.28;5015963;28;20211;-82
2022/12/27 07:48:41;;;;;;;7.73;7.03;;;;;;;4.43;88.98;101239.22;5016336;28;20334;-81
2022/12/27 07:51:08;;;;;;;7.83;7.00;;;;;;;4.46;88.87;101265.09;5016513;28;20256;-81
2022/12/27 07:53:35;;;;;;;7.93;6.50;;;;;;;4.40;88.83;101277.91;5015881;28;20319;-81
2022/12/27 07:56:05;;;;;;;10.07;6.63;;;;;;;4.51;88.88;101286.78;5016862;28;20262;-80
2022/12/27 07:58:36;;;;;;;7.70;7.00;;;;;;;4.44;88.55;101292.66;5017687;28;20726;-81
2022/12/27 08:01:02;;;;;;;7.87;7.17;;;;;;;4.38;88.93;101296.88;5016917;28;20210;-82
2022/12/27 08:03:31;;;;;;;8.20;7.40;;;;;;;4.41;88.92;101283.13;5017465;28;20207;-81
2022/12/27 08:05:57;;;;;;;11.73;6.17;;;;;;;4.46;88.47;101314.22;5017329;28;20234;-80
2022/12/27 08:08:26;;;;;;;7.57;6.10;;;;;;;4.45;88.35;101310.78;5017144;28;20281;-79
2022/12/27 08:10:53;;;;;;;6.77;6.07;;;;;;;4.44;88.42;101313.31;5017099;28;20258;-81
2022/12/27 08:13:19;;;;;;;7.57;5.80;;;;;;;4.50;88.19;101328.97;5015743;28;20611;-79
2022/12/27 08:15:45;;;;;;;7.17;6.53;;;;;;;4.44;88.32;101334.00;5016687;28;20265;-78
2022/12/27 08:18:12;;;;;;;8.83;6.57;;;;;;;4.53;88.28;101340.25;5016874;28;20285;-78
2022/12/27 08:20:39;;;;;;;7.93;6.30;;;;;;;4.63;87.64;101350.78;5016751;28;20270;-82
2022/12/27 08:23:06;;;;;;;6.40;5.83;;;;;;;4.60;87.90;101361.94;5017396;28;20633;-81
2022/12/27 08:25:32;;;;;;;6.27;5.63;;;;;;;4.58;87.20;101379.13;5017829;28;20234;-79
2022/12/27 08:28:03;;;;;;;7.57;5.80;;;;;;;4.55;87.38;101379.06;5017105;28;20212;-82
2022/12/27 08:30:29;;;;;;;5.97;5.40;;;;;;;4.54;87.06;101392.84;5016451;28;20207;-81
2022/12/27 08:32:56;;;;;;;6.77;6.00;;;;;;;4.49;86.21;101417.72;5016893;28;20223;-81
2022/12/27 08:35:22;;;;;;;10.60;6.37;;;;;;;4.50;86.37;101422.94;5015536;28;20233;-82
2022/12/27 08:37:50;;;;;;;8.70;5.97;;;;;;;4.50;86.77;101425.50;5014862;28;20580;-82
2022/12/27 08:40:16;;;;;;;10.50;7.33;;;;;;;4.51;86.92;101422.06;5014934;28;20211;-82
2022/12/27 08:42:42;;;;;;;9.17;6.07;;;;;;;4.60;86.55;101429.16;5015249;28;20235;-83
2022/12/27 08:45:10;;;;;;;6.73;6.03;;;;;;;4.63;86.82;101424.03;5014663;28;20209;-82
2022/12/27 08:47:37;;;;;;;8.10;6.63;;;;;;;4.66;86.76;101439.66;5015210;28;20207;-81
2022/12/27 08:50:04;;;;;;;8.20;6.10;;;;;;;4.72;85.97;101454.41;5014080;28;20276;-80
2022/12/27 08:52:30;;;;;;;7.63;6.83;;;;;;;4.64;85.98;101471.47;5002422;28;20220;-80
2022/12/27 08:54:58;;;;;;;8.17;5.87;;;;;;;4.78;86.10;101455.41;5003611;28;20261;-80
2022/12/27 08:57:24;;;;;;;8.23;7.43;;;;;;;4.81;86.81;101461.50;5004291;28;20195;-80
2022/12/27 08:59:50;;;;;;;6.53;5.27;;;;;;;4.86;85.55;101465.94;5002222;28;20729;-79
2022/12/27 09:02:17;;;;;;;5.83;4.97;;;;;;;4.91;85.32;101474.63;5003707;28;20204;-82
2022/12/27 09:04:43;;;;;;;6.07;5.47;;;;;;;4.76;85.48;101510.53;5004069;28;20199;-84
2022/12/27 09:07:09;;;;;;;8.00;5.27;;;;;;;4.78;86.26;101490.75;5002558;28;20200;-81
2022/12/27 09:09:36;;;;;;;5.47;4.93;;;;;;;4.82;86.30;101481.34;5004333;28;20634;-82
2022/12/27 09:12:04;;;;;;;5.20;4.70;;;;;;;4.88;85.85;101478.91;5003744;28;20869;-84
2022/12/27 09:14:30;;;;;;;7.07;4.83;;;;;;;4.71;85.29;101501.78;5002533;28;20223;-83
2022/12/27 09:16:57;;;;;;;6.07;4.00;;;;;;;4.70;84.33;101502.66;5004081;28;20206;-83
2022/12/27 09:19:23;;;;;;;5.03;4.03;;;;;;;4.74;84.54;101531.19;5003748;28;20719;-82
2022/12/27 09:21:49;;;;;;;6.13;3.83;;;;;;;4.55;85.00;101527.31;5001897;28;20195;-81
2022/12/27 09:24:16;;;;;;;6.70;4.33;;;;;;;4.74;85.55;101514.81;5003841;28;20193;-82
2022/12/27 09:26:42;;;;;;;5.27;4.60;;;;;;;4.78;85.91;101509.72;5004226;28;20252;-81
2022/12/27 09:29:10;;;;;;;8.30;4.47;;;;;;;4.78;85.60;101508.88;5002781;28;20227;-82
2022/12/27 09:31:36;;;;;;;4.47;4.03;;;;;;;4.83;85.50;101499.47;5004116;28;20217;-82
2022/12/27 09:34:03;;;;;;;5.47;4.43;;;;;;;4.72;86.53;101495.81;5003831;28;20650;-81
2022/12/27 09:36:29;;;;;;;5.53;4.53;;;;;;;4.91;85.86;101487.56;5002845;28;20624;-82
2022/12/27 09:38:57;;;;;;;4.33;3.80;;;;;;;4.90;85.08;101508.25;5004387;28;20218;-82
2022/12/27 09:41:37;;;;;;;8.23;3.87;;;;;;;4.99;85.05;101526.56;5004872;28;20246;-83
2022/12/27 09:44:07;;;;;;;5.27;4.20;;;;;;;5.03;84.62;101525.78;5002952;28;20195;-83
2022/12/27 09:46:40;;;;;;;7.37;5.10;;;;;;;5.12;84.63;101532.88;5001102;28;20214;-83
2022/12/27 09:49:10;;;;;;;5.40;4.77;;;;;;;5.10;85.67;101539.72;5002990;28;20611;-81
2022/12/27 09:51:46;;;;;;;8.67;4.67;;;;;;;4.91;84.21;101546.22;5000894;28;20199;-81
2022/12/27 09:54:18;;;;;;;5.47;4.93;;;;;;;5.01;85.08;101545.56;5002353;28;20215;-81
2022/12/27 09:56:44;;;;;;;6.37;4.90;;;;;;;5.08;84.44;101542.28;5002870;28;20199;-81
2022/12/27 09:59:19;;;;;;;3.87;3.57;;;;;;;4.96;83.65;101573.94;5005035;28;20269;-82
2022/12/27 10:01:47;;;;;;;8.67;6.70;;;;;;;4.97;82.77;101592.91;5004068;28;20608;-82
2022/12/27 10:04:16;;;;;;;12.27;10.30;;;;;;;5.07;84.48;101581.06;5000139;28;20201;-82
2022/12/27 10:06:57;;;;;;;7.37;5.60;;;;;;;5.10;83.88;101575.97;5006450;28;20198;-83
2022/12/27 10:09:41;;;;;;;5.33;4.73;;;;;;;5.07;84.39;101578.47;5007456;28;20772;-83
2022/12/27 10:12:21;;;;;;;6.30;4.10;;;;;;;5.12;84.67;101562.22;5008405;28;20250;-82
2022/12/27 10:14:58;;;;;;;4.50;3.23;;;;;;;4.98;83.37;101584.31;5008471;28;20225;-83
2022/12/27 10:17:44;;;;;;;2.63;2.43;;;;;;;4.96;83.45;101602.41;5007803;28;20203;-83
2022/12/27 10:20:21;;;;;;;5.87;3.57;;;;;;;4.96;84.01;101597.22;5007682;28;20213;-83
2022/12/27 10:22:50;;;;;;;4.13;3.70;;;;;;;5.14;85.11;101570.88;5009516;28;20195;-82
2022/12/27 10:25:19;;;;;;;3.93;3.53;;;;;;;5.05;85.07;101567.22;5005615;28;20200;-81
2022/12/27 10:27:46;;;;;;;5.13;4.43;;;;;;;5.23;86.03;101546.03;5008095;28;20199;-81
2022/12/27 10:30:15;;;;;;;3.47;2.93;;;;;;;5.16;83.99;101552.81;5008806;28;20558;-81
2022/12/27 10:32:44;;;;;;;7.10;4.00;;;;;;;5.36;84.14;101556.66;5006381;28;20199;-83
2022/12/27 10:35:15;;;;;;;5.33;4.53;;;;;;;5.29;84.35;101560.00;5008163;28;20680;-81
2022/12/27 10:37:41;;;;;;;8.10;3.57;;;;;;;5.36;84.60;101569.59;5007234;28;20249;-82
2022/12/27 10:40:13;;;;;;;6.30;3.90;;;;;;;5.39;84.06;101573.97;5009083;28;20203;-82
2022/12/27 10:42:44;;;;;;;6.27;4.00;;;;;;;5.40;84.29;101574.88;5005328;28;20241;-81
2022/12/27 10:45:32;;;;;;;8.93;4.40;;;;;;;5.40;84.68;101565.38;5006491;28;20207;-83
2022/12/27 10:48:15;;;;;;;9.83;4.20;;;;;;;5.41;84.76;101561.97;5001479;28;20204;-83
2022/12/27 10:50:50;;;;;;;8.90;6.10;;;;;;;5.32;83.31;101585.94;4999127;28;20254;-82
2022/12/27 10:53:35;;;;;;;5.30;4.40;;;;;;;5.49;83.06;101587.97;4997277;28;20249;-82
2022/12/27 10:56:14;;;;;;;3.83;3.50;;;;;;;5.44;83.15;101587.91;5002011;28;20227;-81
2022/12/27 10:58:44;;;;;;;9.20;4.23;;;;;;;5.40;83.15;101599.03;5006287;28;20266;-82
2022/12/27 11:01:21;;;;;;;6.27;4.30;;;;;;;5.42;83.11;101612.03;5005710;28;20203;-81
2022/12/27 11:03:49;;;;;;;5.77;3.83;;;;;;;5.44;83.77;101608.63;5006022;28;20263;-82
2022/12/27 11:06:22;;;;;;;7.27;4.27;;;;;;;5.50;83.54;101618.22;5005861;28;20198;-82
2022/12/27 11:08:49;;;;;;;3.57;3.27;;;;;;;5.73;82.38;101614.41;5005475;28;20624;-83
2022/12/27 11:11:18;;;;;;;6.23;3.70;;;;;;;5.84;81.97;101614.59;5006041;28;20206;-81
2022/12/27 11:13:46;;;;;;;10.17;4.17;;;;;;;5.81;82.36;101649.94;5006454;28;20270;-82
2022/12/27 11:16:16;;;;;;;4.63;4.23;;;;;;;5.81;82.10;101663.78;5007675;28;20203;-85
2022/12/27 11:18:48;;;;;;;4.97;4.43;;;;;;;5.71;81.83;101661.84;5009728;28;20227;-84
2022/12/27 11:21:17;;;;;;;8.33;5.33;;;;;;;5.62;81.76;101666.81;5000666;28;20619;-83
2022/12/27 11:23:48;;;;;;;5.23;4.67;;;;;;;5.55;81.26;101665.84;5008789;28;20201;-83
2022/12/27 11:26:21;;;;;;;6.07;5.57;;;;;;;5.55;82.05;101655.47;5007823;28;20202;-81
2022/12/27 11:28:54;;;;;;;7.03;5.80;;;;;;;5.44;83.31;101644.88;5013732;28;20763;-84
2022/12/27 11:31:30;;;;;;;6.93;6.10;;;;;;;5.55;84.01;101614.91;5018316;28;20207;-84
2022/12/27 11:33:59;;;;;;;9.43;6.17;;;;;;;5.45;83.91;101601.72;5016888;28;20277;-83
2022/12/27 11:36:32;;;;;;;8.93;5.93;;;;;;;5.46;84.52;101585.34;5017709;28;20205;-83
2022/12/27 11:39:00;;;;;;;9.63;6.33;;;;;;;5.47;84.80;101571.53;5016905;28;20314;-82
2022/12/27 11:41:36;;;;;;;6.83;5.87;;;;;;;5.40;84.00;101580.03;5017114;28;20208;-82
2022/12/27 11:44:10;;;;;;;10.40;5.43;;;;;;;5.52;83.91;101572.53;5017053;28;20206;-83
2022/12/27 11:46:40;;;;;;;6.90;6.20;;;;;;;5.35;83.94;101588.59;5016163;28;20219;-83
2022/12/27 11:49:13;;;;;;;8.93;6.03;;;;;;;5.32;83.61;101585.06;5017864;28;20232;-83
2022/12/27 11:52:08;;;;;;;6.50;4.77;;;;;;;5.44;84.46;101568.91;5016075;28;20253;-83
2022/12/27 11:55:04;;;;;;;6.47;5.17;;;;;;;5.43;83.50;101593.03;5017234;28;20241;-82
2022/12/27 11:57:47;;;;;;;5.57;4.80;;;;;;;5.35;83.05;101609.31;5016625;28;20207;-83
2022/12/27 12:00:17;;;;;;;4.83;3.90;;;;;;;5.34;83.30;101617.91;5017253;28;20341;-84
2022/12/27 12:03:01;;;;;;;6.77;5.67;;;;;;;5.39;83.25;101625.75;5016888;28;20204;-81
2022/12/27 12:06:07;;;;;;;7.30;6.10;;;;;;;5.38;83.53;101621.44;5017387;28;20220;-84
2022/12/27 12:09:08;;;;;;;4.57;4.17;;;;;;;5.16;83.08;101633.91;5017299;28;20731;-84
2022/12/27 12:11:50;;;;;;;6.43;5.70;;;;;;;5.23;83.38;101613.31;5017303;28;20580;-83
2022/12/27 12:15:01;;;;;;;7.40;6.23;;;;;;;5.14;84.47;101601.06;5017106;28;20226;-83
2022/12/27 12:17:59;;;;;;;13.40;8.97;;;;;;;5.14;84.31;101581.22;5016970;28;20208;-84
2022/12/27 12:20:46;;;;;;;7.33;6.67;;;;;;;5.42;84.56;101578.38;5016931;28;20580;-84
2022/12/27 12:23:17;;;;;;;7.83;6.33;;;;;;;5.51;83.96;101583.69;5016950;28;20685;-84
2022/12/27 12:26:12;;;;;;;8.83;8.13;;;;;;;5.44;83.59;101603.44;5016381;28;20210;-83
2022/12/27 12:28:58;;;;;;;13.70;8.13;;;;;;;5.56;84.23;101605.41;5015871;28;20233;-85
2022/12/27 12:31:39;;;;;;;7.07;6.37;;;;;;;5.45;83.04;101619.84;5015856;28;20210;-84
2022/12/27 12:34:25;;;;;;;10.50;7.73;;;;;;;5.47;82.67;101629.41;5015710;28;20232;-82
2022/12/27 12:37:12;;;;;;;7.47;6.17;;;;;;;5.58;82.81;101632.22;5016415;28;20215;-83
2022/12/27 12:39:58;;;;;;;7.77;7.07;;;;;;;5.52;82.15;101651.06;5015813;28;20283;-84
2022/12/27 12:42:40;;;;;;;7.83;7.00;;;;;;;5.51;81.86;101669.16;5016275;28;20676;-81
2022/12/27 12:45:42;;;;;;;7.90;7.23;;;;;;;5.73;82.55;101660.16;5015976;28;20355;-84
2022/12/27 12:48:35;;;;;;;8.77;7.07;;;;;;;5.65;81.99;101661.69;5014714;28;20715;-83
2022/12/27 12:51:26;;;;;;;8.23;6.90;;;;;;;5.73;81.43;101673.97;5014504;28;20212;-82
2022/12/27 12:54:07;;;;;;;7.20;6.03;;;;;;;5.72;79.35;101700.72;5015283;28;20232;-84
2022/12/27 12:56:47;;;;;;;5.73;5.20;;;;;;;5.68;79.98;101747.25;5015131;28;20220;-82
2022/12/27 12:59:43;;;;;;;9.63;5.37;;;;;;;5.73;79.34;101750.84;5015619;28;20720;-83
2022/12/27 13:02:34;;;;;;;6.27;5.70;;;;;;;5.57;78.75;101759.97;5015051;28;20217;-83
2022/12/27 13:05:11;;;;;;;7.40;6.40;;;;;;;5.74;80.37;101743.06;5015408;28;20228;-81
2022/12/27 13:07:51;;;;;;;7.27;6.57;;;;;;;5.72;80.05;101755.13;5015766;28;20205;-83
2022/12/27 13:10:47;;;;;;;7.33;6.50;;;;;;;5.85;79.79;101755.41;5015221;28;20267;-83
2022/12/27 13:13:21;;;;;;;7.87;6.77;;;;;;;5.70;78.96;101772.34;5006347;28;20217;-81
2022/12/27 13:16:03;;;;;;;9.40;7.27;;;;;;;5.84;79.83;101764.00;5015092;28;20228;-82
2022/12/27 13:18:39;;;;;;;7.23;6.63;;;;;;;5.95;79.94;101747.88;5015099;28;20286;-83
2022/12/27 13:21:16;;;;;;;5.90;5.40;;;;;;;5.95;77.95;101759.97;5037356;23;20244;-81
2022/12/27 13:23:54;;;;;;;6.20;5.77;;;;;;;5.99;78.86;101772.16;5014537;28;20268;-83
2022/12/27 13:26:27;;;;;;;13.03;7.10;;;;;;;5.95;77.60;101794.53;5014393;28;20210;-84
2022/12/27 13:29:16;;;;;;;7.70;6.47;;;;;;;5.95;77.32;101810.09;5014733;28;20210;-83